Time;durP1;ratioP1;P1;durP2;ratioP2;P2;SDS_P1;SDS_P2;PMS_P1;PMS_P2;Temp;Humidity;BMP_temperature;BMP_pressure;BME280_temperature;BME280_humidity;BME280_pressure;Samples;Min_cycle;Max_cycle;Signal;HPM_P1;HPM_P2
2023/05/14 00:00:16;;;;;;;11.05;6.15;;;12.30;99.90;;;;;;5115478;28;20039;-71
2023/05/14 00:02:42;;;;;;;9.30;5.63;;;12.30;99.90;;;;;;5115113;28;20455;-72
2023/05/14 00:05:08;;;;;;;15.00;6.37;;;12.30;99.90;;;;;;5115518;28;20043;-72
2023/05/14 00:07:34;;;;;;;10.25;5.75;;;12.20;99.90;;;;;;5114122;28;20051;-72
2023/05/14 00:10:00;;;;;;;11.85;6.20;;;12.30;99.90;;;;;;5115247;28;20032;-71
2023/05/14 00:12:26;;;;;;;8.70;5.90;;;12.20;99.90;;;;;;5114143;28;20074;-72
2023/05/14 00:14:52;;;;;;;10.38;5.40;;;12.20;99.90;;;;;;5115534;28;20051;-71
2023/05/14 00:17:18;;;;;;;16.10;6.20;;;12.20;99.90;;;;;;5114861;28;20168;-72
2023/05/14 00:19:43;;;;;;;8.90;5.18;;;12.20;99.90;;;;;;5115092;28;20248;-71
2023/05/14 00:22:10;;;;;;;11.55;6.13;;;12.20;99.90;;;;;;5114023;28;20115;-72
2023/05/14 00:24:35;;;;;;;13.53;6.00;;;12.20;99.90;;;;;;5115028;28;20050;-71
2023/05/14 00:27:02;;;;;;;7.82;5.57;;;12.20;99.90;;;;;;5114599;27;20039;-72
2023/05/14 00:29:27;;;;;;;10.35;6.45;;;12.20;99.90;;;;;;5115302;28;20218;-72
2023/05/14 00:31:53;;;;;;;19.92;6.72;;;12.20;99.90;;;;;;5114893;28;20142;-71
2023/05/14 00:34:18;;;;;;;10.45;5.68;;;12.20;99.90;;;;;;5114727;28;20035;-72
2023/05/14 00:36:44;;;;;;;10.55;6.43;;;12.10;99.90;;;;;;5113658;28;20035;-73
2023/05/14 00:39:10;;;;;;;8.32;5.20;;;12.10;99.90;;;;;;5114814;28;20090;-71
2023/05/14 00:41:35;;;;;;;11.88;5.63;;;12.10;99.90;;;;;;5114648;28;20085;-71
2023/05/14 00:44:01;;;;;;;10.32;6.15;;;12.10;99.90;;;;;;5114467;28;20047;-72
2023/05/14 00:46:27;;;;;;;11.40;5.93;;;12.00;99.90;;;;;;5114618;28;20041;-71
2023/05/14 00:48:53;;;;;;;9.68;5.82;;;12.00;99.90;;;;;;5114603;28;20039;-71
2023/05/14 00:51:19;;;;;;;9.80;6.30;;;12.00;99.90;;;;;;5114304;28;20467;-71
2023/05/14 00:53:45;;;;;;;9.33;5.87;;;11.90;99.90;;;;;;5114401;28;20050;-71
2023/05/14 00:56:12;;;;;;;11.73;6.00;;;12.00;99.90;;;;;;5114390;28;20476;-71
2023/05/14 00:58:38;;;;;;;11.13;6.40;;;11.90;99.90;;;;;;5114429;28;20099;-71
2023/05/14 01:01:03;;;;;;;9.13;6.07;;;11.90;99.90;;;;;;5114387;28;20130;-71
2023/05/14 01:03:30;;;;;;;11.10;6.50;;;11.90;99.90;;;;;;5114433;28;20070;-71
2023/05/14 01:06:22;;;;;;;12.48;6.38;;;11.90;99.90;;;;;;5114427;28;20043;-71
2023/05/14 01:09:12;;;;;;;11.02;6.82;;;11.90;99.90;;;;;;5114291;28;20063;-71
2023/05/14 01:11:58;;;;;;;12.20;5.82;;;11.80;99.90;;;;;;5114285;28;20047;-72
2023/05/14 01:14:42;;;;;;;11.10;6.18;;;11.80;99.90;;;;;;5114146;28;20046;-72
2023/05/14 01:17:11;;;;;;;9.23;6.28;;;11.80;99.90;;;;;;5114176;28;20149;-71
2023/05/14 01:19:38;;;;;;;12.30;7.20;;;11.80;99.90;;;;;;5114974;28;20044;-72
2023/05/14 01:22:04;;;;;;;11.90;6.53;;;11.70;99.90;;;;;;5114190;28;20047;-72
2023/05/14 01:24:30;;;;;;;8.77;5.47;;;11.80;99.90;;;;;;5114002;28;20038;-72
2023/05/14 01:27:06;;;;;;;12.77;6.53;;;11.90;99.90;;;;;;5114111;28;20066;-70
2023/05/14 01:29:33;;;;;;;11.07;6.22;;;11.70;99.90;;;;;;5114211;28;20065;-71
2023/05/14 01:32:00;;;;;;;8.13;6.07;;;11.70;99.90;;;;;;5114062;28;20039;-71
2023/05/14 01:34:28;;;;;;;8.90;6.38;;;11.60;99.90;;;;;;5114029;28;20405;-71
2023/05/14 01:36:55;;;;;;;9.73;6.60;;;11.60;99.90;;;;;;5114268;28;20055;-70
2023/05/14 01:39:21;;;;;;;;;;;11.70;99.90;;;;;;5114417;28;20475;-72
2023/05/14 01:41:48;;;;;;;12.05;6.68;;;11.70;99.90;;;;;;5114024;28;19924;-72
2023/05/14 01:44:14;;;;;;;10.70;6.22;;;11.60;99.90;;;;;;5113878;28;20483;-71
2023/05/14 01:46:40;;;;;;;8.70;6.50;;;11.60;99.90;;;;;;5114453;28;20374;-71
2023/05/14 01:49:06;;;;;;;12.15;7.20;;;11.60;99.90;;;;;;5113908;28;20123;-71
2023/05/14 01:51:31;;;;;;;15.13;6.68;;;11.60;99.90;;;;;;5113887;28;20067;-71
2023/05/14 01:53:57;;;;;;;9.82;6.07;;;11.50;99.90;;;;;;5113866;28;20421;-71
2023/05/14 01:56:24;;;;;;;9.45;6.65;;;11.50;99.90;;;;;;5114010;28;20035;-71
2023/05/14 01:58:50;;;;;;;;;;;11.50;99.90;;;;;;5114228;28;20043;-71
2023/05/14 02:01:15;;;;;;;12.90;6.30;;;11.50;99.90;;;;;;5113862;28;20019;-71
2023/05/14 02:03:41;;;;;;;12.80;6.90;;;12.30;99.90;;;;;;5114954;28;20082;-72
2023/05/14 02:06:07;;;;;;;11.38;7.05;;;11.40;99.90;;;;;;5117716;28;20040;-71
2023/05/14 02:08:32;;;;;;;13.43;7.45;;;11.40;99.90;;;;;;5117665;28;20476;-70
2023/05/14 02:10:58;;;;;;;14.20;7.90;;;11.40;99.90;;;;;;5117584;28;20371;-71
2023/05/14 02:13:25;;;;;;;15.82;7.80;;;11.40;99.90;;;;;;5117529;28;20085;-72
2023/05/14 02:15:50;;;;;;;13.07;7.50;;;11.30;99.90;;;;;;5117275;28;20575;-71
2023/05/14 02:18:16;;;;;;;10.32;7.20;;;11.30;99.90;;;;;;5117851;28;20138;-71
2023/05/14 02:20:41;;;;;;;12.98;7.10;;;11.40;99.90;;;;;;5117703;28;20128;-71
2023/05/14 02:23:07;;;;;;;12.38;7.13;;;11.30;99.90;;;;;;5117321;28;20366;-71
2023/05/14 02:25:32;;;;;;;13.80;8.43;;;11.30;99.90;;;;;;5117371;28;20039;-71
2023/05/14 02:27:58;;;;;;;19.65;8.55;;;11.40;99.90;;;;;;5117241;28;20519;-72
2023/05/14 02:30:24;;;;;;;13.07;7.72;;;11.20;99.90;;;;;;5117655;28;20054;-71
2023/05/14 02:32:49;;;;;;;14.10;7.47;;;11.20;99.90;;;;;;5117129;28;20036;-72
2023/05/14 02:35:15;;;;;;;12.75;8.02;;;11.20;99.90;;;;;;5117129;28;20096;-71
2023/05/14 02:37:40;;;;;;;10.48;7.53;;;11.20;99.90;;;;;;5116147;28;20035;-71
2023/05/14 02:40:07;;;;;;;13.07;8.10;;;11.10;99.90;;;;;;5117088;28;20040;-71
2023/05/14 02:42:33;;;;;;;16.03;8.33;;;11.10;99.90;;;;;;5117010;28;20114;-72
2023/05/14 02:44:58;;;;;;;10.15;7.13;;;11.10;99.90;;;;;;5116921;27;20038;-71
2023/05/14 02:47:24;;;;;;;13.98;7.72;;;11.10;99.90;;;;;;5116846;28;20044;-70
2023/05/14 02:49:49;;;;;;;13.88;7.72;;;11.10;99.90;;;;;;5116429;28;20043;-71
2023/05/14 02:52:15;;;;;;;15.23;6.85;;;11.00;99.90;;;;;;5116677;28;20039;-71
2023/05/14 02:54:40;;;;;;;13.77;7.03;;;11.00;99.90;;;;;;5115612;28;20040;-71
2023/05/14 02:57:06;;;;;;;14.18;7.75;;;10.90;99.90;;;;;;5115564;28;20034;-71
2023/05/14 02:59:32;;;;;;;10.95;7.70;;;10.90;99.90;;;;;;5116615;28;20113;-71
2023/05/14 03:01:57;;;;;;;12.52;7.10;;;10.90;99.90;;;;;;5116557;28;20035;-71
2023/05/14 03:04:23;;;;;;;15.13;7.70;;;10.80;99.90;;;;;;5116570;28;20047;-71
2023/05/14 03:06:48;;;;;;;15.90;8.15;;;10.80;99.90;;;;;;5116791;28;20047;-70
2023/05/14 03:09:14;;;;;;;14.80;7.78;;;10.80;99.90;;;;;;5116478;28;20356;-71
2023/05/14 03:11:40;;;;;;;14.30;8.45;;;10.80;99.90;;;;;;5116482;28;20035;-71
2023/05/14 03:14:05;;;;;;;15.23;8.25;;;10.90;99.90;;;;;;5115741;28;20032;-72
2023/05/14 03:16:31;;;;;;;14.82;8.52;;;10.70;99.90;;;;;;5116336;28;20440;-71
2023/05/14 03:18:56;;;;;;;11.65;7.78;;;10.70;99.90;;;;;;5115296;28;20051;-72
2023/05/14 03:21:22;;;;;;;12.60;7.82;;;10.70;99.90;;;;;;5116224;28;20080;-71
2023/05/14 03:23:48;;;;;;;13.38;7.03;;;10.70;99.90;;;;;;5116161;28;20074;-70
2023/05/14 03:26:13;;;;;;;13.20;7.57;;;10.60;99.90;;;;;;5116129;28;20048;-70
2023/05/14 03:28:39;;;;;;;12.50;7.25;;;10.60;99.90;;;;;;5116050;28;20042;-71
2023/05/14 03:31:05;;;;;;;12.02;7.63;;;10.60;99.90;;;;;;5116427;28;20051;-71
2023/05/14 03:33:31;;;;;;;14.32;7.05;;;10.60;99.90;;;;;;5116232;28;20367;-71
2023/05/14 03:35:56;;;;;;;17.73;8.73;;;10.60;99.90;;;;;;5116173;28;20040;-71
2023/05/14 03:38:22;;;;;;;11.43;7.00;;;10.60;99.90;;;;;;5115885;28;20028;-71
2023/05/14 03:40:47;;;;;;;11.35;7.53;;;10.60;99.90;;;;;;5115824;28;20035;-71
2023/05/14 03:43:13;;;;;;;13.77;7.95;;;10.60;99.90;;;;;;5115810;28;20456;-71
2023/05/14 03:45:39;;;;;;;14.02;8.02;;;10.90;99.90;;;;;;5115319;28;20046;-71
2023/05/14 03:48:05;;;;;;;12.00;8.07;;;10.50;99.90;;;;;;5115663;28;20047;-71
2023/05/14 03:50:30;;;;;;;13.55;8.27;;;10.50;99.90;;;;;;5115913;28;20398;-71
2023/05/14 03:52:56;;;;;;;14.07;8.55;;;10.50;99.90;;;;;;5115663;28;20035;-71
2023/05/14 03:55:22;;;;;;;12.60;7.93;;;10.50;99.90;;;;;;5115737;28;20073;-71
2023/05/14 03:57:47;;;;;;;12.82;8.45;;;10.50;99.90;;;;;;5115387;28;20523;-71
2023/05/14 04:00:13;;;;;;;14.88;8.10;;;10.50;99.90;;;;;;5115429;28;20047;-71
2023/05/14 04:02:39;;;;;;;12.90;8.13;;;10.40;99.90;;;;;;5115839;28;20473;-70
2023/05/14 04:05:05;;;;;;;15.73;8.27;;;10.50;99.90;;;;;;5115669;28;20059;-72
2023/05/14 04:07:31;;;;;;;14.77;8.15;;;10.50;99.90;;;;;;5115361;28;20031;-72
2023/05/14 04:09:56;;;;;;;13.27;8.25;;;10.50;99.90;;;;;;5115365;28;20039;-70
2023/05/14 04:12:22;;;;;;;13.48;8.20;;;10.40;99.90;;;;;;5114005;28;20046;-72
2023/05/14 04:14:47;;;;;;;14.07;9.15;;;10.50;99.90;;;;;;5114141;28;20043;-70
2023/05/14 04:17:13;;;;;;;12.45;7.82;;;10.50;99.90;;;;;;5115594;28;20035;-71
2023/05/14 04:19:39;;;;;;;14.65;7.82;;;10.50;99.90;;;;;;5115148;28;20043;-71
2023/05/14 04:22:05;;;;;;;10.60;7.53;;;10.50;99.90;;;;;;5115029;28;20470;-71
2023/05/14 04:24:30;;;;;;;13.43;8.07;;;10.50;99.90;;;;;;5115142;28;20099;-71
2023/05/14 04:26:56;;;;;;;12.15;8.30;;;10.50;99.90;;;;;;5114332;28;20032;-72
2023/05/14 04:29:21;;;;;;;17.08;8.15;;;10.60;99.90;;;;;;5114885;28;20043;-72
2023/05/14 04:31:48;;;;;;;15.50;7.70;;;10.60;99.90;;;;;;5115159;28;20118;-72
2023/05/14 04:34:14;;;;;;;13.88;8.93;;;10.60;99.90;;;;;;5114942;28;20044;-72
2023/05/14 04:36:40;;;;;;;12.38;8.10;;;10.60;99.90;;;;;;5114876;28;20098;-72
2023/05/14 04:39:05;;;;;;;13.02;8.82;;;10.60;99.90;;;;;;5115011;28;20050;-70
2023/05/14 04:41:31;;;;;;;13.68;7.70;;;10.70;99.90;;;;;;5114827;28;20038;-71
2023/05/14 04:44:00;;;;;;;14.02;8.68;;;10.70;99.90;;;;;;5114704;28;20085;-71
2023/05/14 04:46:26;;;;;;;14.48;8.95;;;10.70;99.90;;;;;;5114607;28;20045;-71
2023/05/14 04:48:52;;;;;;;12.83;7.90;;;10.80;99.90;;;;;;5115035;28;20062;-71
2023/05/14 04:51:17;;;;;;;17.08;8.52;;;10.80;99.90;;;;;;5114551;28;20477;-71
2023/05/14 04:53:43;;;;;;;15.13;8.10;;;11.40;99.90;;;;;;5114470;28;20042;-72
2023/05/14 04:56:09;;;;;;;10.75;7.63;;;10.90;99.90;;;;;;5114513;28;20035;-72
2023/05/14 04:58:35;;;;;;;13.43;7.93;;;11.00;99.90;;;;;;5113260;28;20039;-71
2023/05/14 05:01:03;;;;;;;15.68;8.52;;;11.00;99.90;;;;;;5114464;28;20306;-71
2023/05/14 05:03:30;;;;;;;12.55;8.38;;;11.10;99.90;;;;;;5114421;28;20032;-72
2023/05/14 05:05:55;;;;;;;18.27;8.23;;;11.20;99.90;;;;;;5114643;28;20051;-70
2023/05/14 05:08:21;;;;;;;12.80;8.30;;;11.30;99.90;;;;;;5114324;28;20054;-72
2023/05/14 05:10:46;;;;;;;14.93;7.28;;;11.40;99.90;;;;;;5114261;28;20470;-71
2023/05/14 05:13:12;;;;;;;15.88;8.40;;;11.40;99.90;;;;;;5114104;28;20071;-71
2023/05/14 05:15:38;;;;;;;13.90;7.55;;;11.50;99.90;;;;;;5114306;28;20043;-71
2023/05/14 05:18:03;;;;;;;11.95;7.95;;;11.50;99.90;;;;;;5114218;28;20079;-71
2023/05/14 05:20:29;;;;;;;13.15;8.75;;;11.60;99.90;;;;;;5114162;28;20366;-71
2023/05/14 05:22:54;;;;;;;11.35;7.40;;;11.60;99.90;;;;;;5114213;28;20039;-72
2023/05/14 05:25:20;;;;;;;15.57;8.07;;;11.70;99.90;;;;;;5114769;28;20035;-70
2023/05/14 05:27:46;;;;;;;12.35;7.60;;;11.80;99.90;;;;;;5114281;28;20114;-72
2023/05/14 05:30:12;;;;;;;14.38;8.52;;;11.80;99.90;;;;;;5114059;28;20134;-72
2023/05/14 05:32:37;;;;;;;12.27;8.33;;;11.90;99.90;;;;;;5114006;28;20065;-72
2023/05/14 05:35:03;;;;;;;12.43;6.95;;;11.90;99.90;;;;;;5114106;28;20044;-71
2023/05/14 05:37:29;;;;;;;10.98;7.55;;;12.00;99.90;;;;;;5114669;28;20368;-71
2023/05/14 05:39:55;;;;;;;9.77;7.45;;;12.10;99.90;;;;;;5118426;28;20046;-71
2023/05/14 05:42:21;;;;;;;12.00;8.10;;;12.10;99.90;;;;;;5118232;28;20130;-71
2023/05/14 05:44:47;;;;;;;11.25;7.93;;;12.20;99.90;;;;;;5118052;27;20044;-71
2023/05/14 05:47:12;;;;;;;12.88;7.60;;;12.30;99.90;;;;;;5118734;28;20459;-71
2023/05/14 05:49:38;;;;;;;15.52;7.75;;;12.40;99.90;;;;;;5118044;28;20031;-72
2023/05/14 05:52:04;;;;;;;11.50;7.70;;;12.40;99.90;;;;;;5118049;28;20490;-71
2023/05/14 05:54:31;;;;;;;11.13;7.18;;;12.60;99.90;;;;;;5116716;28;20459;-72
2023/05/14 05:56:56;;;;;;;16.52;7.85;;;12.60;99.90;;;;;;5117880;28;20118;-71
2023/05/14 05:59:23;;;;;;;14.43;8.10;;;12.60;99.90;;;;;;5117852;28;20131;-72
2023/05/14 06:01:49;;;;;;;14.35;7.72;;;12.70;99.90;;;;;;5118200;28;20371;-71
2023/05/14 06:04:14;;;;;;;11.23;7.43;;;12.80;99.90;;;;;;5117533;28;20056;-71
2023/05/14 06:06:40;;;;;;;13.18;7.90;;;12.90;99.90;;;;;;5117738;28;20039;-71
2023/05/14 06:09:05;;;;;;;15.20;8.93;;;13.00;99.90;;;;;;5117797;28;20040;-72
2023/05/14 06:11:31;;;;;;;13.95;7.97;;;13.00;99.90;;;;;;5117633;28;20036;-71
2023/05/14 06:13:57;;;;;;;12.80;8.02;;;13.00;99.90;;;;;;5117507;28;20078;-71
2023/05/14 06:16:23;;;;;;;16.00;8.30;;;13.10;99.90;;;;;;5117520;28;20035;-71
2023/05/14 06:18:48;;;;;;;13.27;8.97;;;13.20;99.90;;;;;;5117475;28;20474;-71
2023/05/14 06:21:14;;;;;;;11.77;8.45;;;13.20;99.90;;;;;;5117462;28;20047;-71
2023/05/14 06:23:40;;;;;;;10.80;8.07;;;13.80;99.90;;;;;;5117695;28;20048;-71
2023/05/14 06:26:06;;;;;;;12.52;8.48;;;13.40;99.90;;;;;;5117522;28;20031;-71
2023/05/14 06:28:31;;;;;;;15.48;7.50;;;13.40;99.90;;;;;;5117256;28;20042;-70
2023/05/14 06:30:57;;;;;;;17.55;8.30;;;13.40;99.90;;;;;;5117228;28;20463;-72
2023/05/14 06:33:29;;;;;;;15.48;8.63;;;13.50;99.90;;;;;;5117113;28;20031;-72
2023/05/14 06:35:58;;;;;;;15.48;7.72;;;13.50;99.90;;;;;;5117172;28;20115;-72
2023/05/14 06:38:24;;;;;;;12.15;8.10;;;14.10;99.90;;;;;;5117081;28;20048;-71
2023/05/14 06:40:51;;;;;;;11.47;7.83;;;13.70;99.90;;;;;;5117098;28;20240;-72
2023/05/14 06:43:17;;;;;;;11.65;7.82;;;13.70;99.90;;;;;;5116963;27;20031;-71
2023/05/14 06:45:43;;;;;;;14.47;7.20;;;13.80;99.90;;;;;;5116978;28;20058;-71
2023/05/14 06:48:09;;;;;;;13.55;8.40;;;13.90;99.90;;;;;;5116933;28;20089;-71
2023/05/14 06:50:35;;;;;;;11.48;7.32;;;13.90;99.90;;;;;;5116019;28;20040;-72
2023/05/14 06:53:00;;;;;;;12.82;8.40;;;14.00;99.90;;;;;;5116782;28;20046;-72
2023/05/14 06:55:26;;;;;;;19.15;7.55;;;14.10;99.90;;;;;;5116760;28;20421;-71
2023/05/14 06:57:51;;;;;;;10.77;7.47;;;14.10;99.90;;;;;;5116656;28;20040;-71
2023/05/14 07:00:18;;;;;;;13.55;8.00;;;14.20;99.90;;;;;;5116706;28;20062;-71
2023/05/14 07:02:43;;;;;;;11.00;7.70;;;14.20;99.90;;;;;;5116630;27;20349;-72
2023/05/14 07:05:10;;;;;;;10.13;6.87;;;14.20;99.90;;;;;;5116434;28;20066;-72
2023/05/14 07:07:35;;;;;;;10.40;6.93;;;14.40;99.90;;;;;;5116954;28;20466;-72
2023/05/14 07:10:01;;;;;;;14.53;7.40;;;14.40;99.90;;;;;;5116481;28;20078;-72
2023/05/14 07:12:26;;;;;;;13.93;6.67;;;14.50;99.90;;;;;;5116255;28;20049;-72
2023/05/14 07:14:52;;;;;;;12.60;7.50;;;14.70;99.90;;;;;;5116639;28;20043;-72
2023/05/14 07:17:18;;;;;;;13.77;6.97;;;15.00;99.90;;;;;;5116229;28;20046;-72
2023/05/14 07:19:43;;;;;;;11.57;7.37;;;15.20;99.90;;;;;;5116266;28;20498;-71
2023/05/14 07:22:09;;;;;;;8.87;6.40;;;15.40;99.90;;;;;;5116360;28;20028;-71
2023/05/14 07:24:34;;;;;;;11.53;7.40;;;15.90;99.90;;;;;;5115992;28;20075;-71
2023/05/14 07:27:00;;;;;;;12.17;6.43;;;16.10;99.90;;;;;;5114965;28;20046;-71
2023/05/14 07:29:27;;;;;;;9.27;6.68;;;16.20;99.90;;;;;;5116566;28;20047;-72
2023/05/14 07:31:52;;;;;;;11.02;6.60;;;16.30;99.90;;;;;;5116020;28;20083;-71
2023/05/14 07:34:18;;;;;;;11.53;6.30;;;16.50;99.90;;;;;;5115928;28;20075;-72
2023/05/14 07:36:44;;;;;;;8.57;6.60;;;16.70;99.90;;;;;;5115955;28;20483;-72
2023/05/14 07:39:09;;;;;;;9.43;6.00;;;16.80;99.90;;;;;;5115934;28;20071;-72
2023/05/14 07:41:35;;;;;;;10.43;5.90;;;16.80;99.90;;;;;;5115777;28;20043;-72
2023/05/14 07:44:01;;;;;;;10.60;6.17;;;16.80;99.90;;;;;;5116287;28;20053;-71
2023/05/14 07:46:26;;;;;;;9.83;5.93;;;16.90;99.90;;;;;;5116207;28;20405;-72
2023/05/14 07:48:52;;;;;;;10.97;5.97;;;17.00;99.90;;;;;;5115372;28;20057;-72
2023/05/14 07:51:17;;;;;;;8.90;5.37;;;17.00;99.90;;;;;;5115909;28;20035;-72
2023/05/14 07:53:43;;;;;;;10.23;6.10;;;17.10;99.90;;;;;;5115515;28;20036;-72
2023/05/14 07:56:08;;;;;;;8.60;5.87;;;17.10;99.90;;;;;;5115558;28;20046;-71
2023/05/14 07:58:34;;;;;;;9.67;6.37;;;17.20;99.90;;;;;;5115453;28;20044;-72
2023/05/14 08:01:02;;;;;;;10.17;6.10;;;17.40;99.90;;;;;;5115850;28;20075;-72
2023/05/14 08:03:28;;;;;;;7.95;5.75;;;17.50;99.90;;;;;;5114580;28;20375;-72
2023/05/14 08:05:53;;;;;;;10.47;6.43;;;17.50;99.90;;;;;;5116018;28;20073;-71
2023/05/14 08:08:19;;;;;;;10.13;6.20;;;17.50;99.90;;;;;;5115299;28;20036;-71
2023/05/14 08:10:44;;;;;;;11.53;6.90;;;17.30;99.90;;;;;;5115311;28;20092;-71
2023/05/14 08:13:10;;;;;;;10.43;6.80;;;17.40;99.90;;;;;;5114119;28;20039;-71
2023/05/14 08:15:38;;;;;;;12.57;7.27;;;17.30;99.90;;;;;;5114909;28;20406;-73
2023/05/14 08:18:04;;;;;;;10.20;7.10;;;17.30;99.90;;;;;;5115474;28;20095;-71
2023/05/14 08:20:30;;;;;;;11.03;7.40;;;17.40;99.90;;;;;;5115052;28;20130;-72
2023/05/14 08:22:56;;;;;;;11.70;6.80;;;17.50;99.90;;;;;;5115236;28;20031;-71
2023/05/14 08:25:22;;;;;;;12.70;6.65;;;17.60;99.90;;;;;;5115078;28;20043;-72
2023/05/14 08:27:48;;;;;;;8.77;6.00;;;17.70;99.90;;;;;;5114896;28;20059;-71
2023/05/14 08:30:14;;;;;;;14.17;7.43;;;17.70;99.90;;;;;;5115359;28;20051;-70
2023/05/14 08:32:40;;;;;;;8.10;6.23;;;17.70;99.90;;;;;;5114787;28;20507;-71
2023/05/14 08:35:06;;;;;;;8.23;6.13;;;17.80;99.90;;;;;;5115095;28;20087;-71
2023/05/14 08:37:31;;;;;;;8.93;6.73;;;17.80;99.90;;;;;;5114829;28;20134;-72
2023/05/14 08:39:57;;;;;;;10.17;6.60;;;17.90;99.90;;;;;;5114714;28;20455;-71
2023/05/14 08:42:24;;;;;;;10.47;6.40;;;17.90;99.90;;;;;;5114374;28;20096;-72
2023/05/14 08:45:03;;;;;;;10.60;6.45;;;17.80;99.90;;;;;;5114353;28;20050;-71
2023/05/14 08:47:29;;;;;;;6.68;5.38;;;18.00;99.90;;;;;;5115004;28;20036;-72
2023/05/14 08:50:07;;;;;;;8.90;6.10;;;18.10;99.90;;;;;;5114608;28;20071;-71
2023/05/14 08:52:33;;;;;;;;;;;18.20;99.90;;;;;;5115050;28;20044;-70
2023/05/14 08:55:02;;;;;;;8.93;5.60;;;18.20;99.90;;;;;;5114491;28;19916;-71
2023/05/14 08:57:29;;;;;;;6.78;5.35;;;18.20;99.90;;;;;;5114391;28;20039;-71
2023/05/14 08:59:54;;;;;;;;;;;18.20;99.90;;;;;;5115140;28;20042;-71
2023/05/14 09:02:24;;;;;;;8.20;5.75;;;18.10;99.90;;;;;;5114383;28;19915;-71
2023/05/14 09:04:55;;;;;;;7.25;5.38;;;18.20;99.90;;;;;;5114365;28;20062;-72
2023/05/14 09:07:20;;;;;;;7.57;5.57;;;18.30;99.90;;;;;;5113935;28;20039;-71
2023/05/14 09:09:46;;;;;;;6.47;5.40;;;18.50;99.90;;;;;;5114244;28;20046;-73
2023/05/14 09:12:12;;;;;;;11.03;5.13;;;18.70;99.90;;;;;;5113856;28;20360;-71
2023/05/14 09:14:38;;;;;;;6.97;4.63;;;18.90;99.90;;;;;;5114193;28;20027;-72
2023/05/14 09:17:03;;;;;;;10.70;5.33;;;19.10;99.90;;;;;;5114144;28;20043;-70
2023/05/14 09:19:30;;;;;;;7.17;4.77;;;19.20;99.90;;;;;;5113812;28;20529;-72
2023/05/14 09:21:57;;;;;;;7.85;4.88;;;19.30;99.90;;;;;;5114183;28;20088;-72
2023/05/14 09:24:26;;;;;;;6.60;4.30;;;19.40;99.90;;;;;;5113912;28;20043;-71
2023/05/14 09:26:53;;;;;;;7.22;4.63;;;19.40;99.90;;;;;;5113135;28;20483;-71
2023/05/14 09:29:19;;;;;;;8.30;4.53;;;19.50;99.90;;;;;;5114009;28;20043;-71
2023/05/14 09:31:45;;;;;;;6.63;4.87;;;19.60;99.90;;;;;;5113999;28;20044;-72
2023/05/14 09:34:10;;;;;;;5.57;3.93;;;19.70;99.90;;;;;;5113977;28;20046;-72
2023/05/14 09:36:36;;;;;;;8.47;4.80;;;19.70;99.90;;;;;;5113917;28;20031;-71
2023/05/14 09:39:05;;;;;;;7.77;4.87;;;19.90;99.90;;;;;;5114006;28;20039;-72
2023/05/14 09:41:30;;;;;;;5.50;3.97;;;19.90;99.90;;;;;;5114426;28;20412;-71
2023/05/14 09:43:56;;;;;;;5.40;4.00;;;19.90;99.90;;;;;;5113777;28;20118;-71
2023/05/14 09:46:22;;;;;;;5.93;4.13;;;20.00;99.90;;;;;;5113942;28;20160;-72
2023/05/14 09:48:49;;;;;;;10.02;5.20;;;20.00;99.90;;;;;;5113880;28;20368;-71
2023/05/14 09:51:19;;;;;;;7.97;4.32;;;20.20;99.90;;;;;;5112483;28;20051;-71
2023/05/14 09:53:45;;;;;;;6.35;4.05;;;20.20;99.90;;;;;;5114250;28;20035;-72
2023/05/14 09:56:12;;;;;;;6.40;4.20;;;20.30;99.90;;;;;;5114081;28;20046;-71
2023/05/14 09:58:37;;;;;;;5.30;3.78;;;20.30;99.90;;;;;;5112601;28;20035;-71
2023/05/14 10:01:04;;;;;;;7.13;3.77;;;20.40;99.90;;;;;;5112890;28;20514;-71
2023/05/14 10:03:31;;;;;;;4.93;3.70;;;20.60;99.90;;;;;;5113779;28;20035;-71
2023/05/14 10:06:03;;;;;;;5.68;4.03;;;20.60;99.90;;;;;;5113295;28;20043;-72
2023/05/14 10:08:34;;;;;;;6.80;4.28;;;20.70;99.90;;;;;;5113632;28;20048;-71
2023/05/14 10:11:05;;;;;;;8.23;4.32;;;20.80;99.90;;;;;;5113667;28;20058;-71
2023/05/14 10:13:38;;;;;;;7.18;4.20;;;20.90;99.90;;;;;;5113908;28;20042;-72
2023/05/14 10:16:20;;;;;;;12.30;4.43;;;21.00;99.90;;;;;;5113544;28;20039;-71
2023/05/14 10:18:51;;;;;;;5.07;3.95;;;21.10;99.90;;;;;;5113030;28;20083;-72
2023/05/14 10:21:20;;;;;;;5.25;3.60;;;21.10;99.90;;;;;;5113878;28;20039;-72
2023/05/14 10:23:47;;;;;;;7.38;3.30;;;21.00;99.90;;;;;;5113647;28;20131;-73
2023/05/14 10:26:13;;;;;;;6.78;3.97;;;21.20;99.90;;;;;;5116749;28;20052;-73
2023/05/14 10:28:39;;;;;;;5.72;4.07;;;21.30;99.90;;;;;;5117270;28;20047;-71
2023/05/14 10:31:08;;;;;;;4.80;3.33;;;21.30;99.90;;;;;;5117172;28;20036;-71
2023/05/14 10:33:49;;;;;;;10.38;4.43;;;21.30;99.90;;;;;;5117041;28;20294;-72
2023/05/14 10:36:19;;;;;;;6.88;4.50;;;21.30;99.90;;;;;;5117494;28;20040;-71
2023/05/14 10:38:45;;;;;;;6.40;4.47;;;21.30;99.90;;;;;;5116979;28;20088;-71
2023/05/14 10:41:16;;;;;;;7.45;3.92;;;21.20;99.90;;;;;;5117069;28;20050;-71
2023/05/14 10:43:43;;;;;;;4.43;3.65;;;21.10;99.90;;;;;;5116967;28;20039;-71
2023/05/14 10:46:10;;;;;;;9.30;3.38;;;21.10;99.90;;;;;;5117346;28;20039;-71
2023/05/14 10:48:37;;;;;;;4.80;3.72;;;21.30;99.90;;;;;;5116960;28;20043;-71
2023/05/14 10:51:07;;;;;;;5.28;3.75;;;21.50;99.90;;;;;;5116802;28;20039;-72
2023/05/14 10:53:35;;;;;;;6.13;3.58;;;21.70;99.90;;;;;;5116596;28;20042;-71
2023/05/14 10:56:09;;;;;;;5.93;4.10;;;21.90;99.90;;;;;;5116592;28;20039;-72
2023/05/14 10:58:43;;;;;;;6.75;4.13;;;22.10;99.60;;;;;;5116607;28;20528;-71
2023/05/14 11:01:10;;;;;;;4.80;3.72;;;22.00;99.90;;;;;;5117077;28;20123;-71
2023/05/14 11:03:44;;;;;;;7.25;4.20;;;22.00;99.90;;;;;;5116450;28;20477;-71
2023/05/14 11:06:14;;;;;;;5.97;3.90;;;22.00;99.90;;;;;;5116706;28;20035;-71
2023/05/14 11:08:40;;;;;;;7.68;3.65;;;22.10;99.60;;;;;;5116456;28;20046;-71
2023/05/14 11:11:08;;;;;;;6.28;3.67;;;22.10;99.90;;;;;;5116908;28;20051;-72
2023/05/14 11:13:34;;;;;;;5.25;4.00;;;22.30;99.90;;;;;;5116305;28;20151;-72
2023/05/14 11:16:00;;;;;;;5.88;3.60;;;22.40;99.90;;;;;;5116706;28;20045;-71
2023/05/14 11:18:28;;;;;;;5.05;3.60;;;22.60;99.90;;;;;;5116359;27;20044;-71
2023/05/14 11:20:58;;;;;;;5.88;3.75;;;22.60;99.70;;;;;;5115129;28;20043;-72
2023/05/14 11:23:27;;;;;;;6.55;4.30;;;22.70;98.40;;;;;;5116098;27;20036;-71
2023/05/14 11:25:54;;;;;;;5.00;3.63;;;22.70;99.90;;;;;;5116168;27;20080;-72
2023/05/14 11:28:23;;;;;;;4.75;3.75;;;22.60;97.10;;;;;;5116122;28;20048;-72
2023/05/14 11:30:49;;;;;;;5.55;3.63;;;22.50;98.90;;;;;;5116068;28;20047;-72
2023/05/14 11:33:16;;;;;;;5.78;3.55;;;22.60;99.70;;;;;;5116168;28;20098;-71
2023/05/14 11:35:44;;;;;;;6.40;3.60;;;22.70;99.90;;;;;;5114435;28;20039;-72
2023/05/14 11:38:17;;;;;;;5.65;3.58;;;22.80;99.00;;;;;;5116155;28;20474;-71
2023/05/14 11:40:53;;;;;;;3.97;3.17;;;22.90;98.20;;;;;;5116368;27;20039;-72
2023/05/14 11:43:22;;;;;;;4.45;3.17;;;22.90;97.90;;;;;;5115929;28;20042;-72
2023/05/14 11:45:52;;;;;;;5.82;3.35;;;23.00;98.20;;;;;;5115789;28;20398;-72
2023/05/14 11:48:21;;;;;;;3.90;3.17;;;23.00;97.10;;;;;;5115641;28;20453;-73
2023/05/14 11:50:48;;;;;;;5.18;3.60;;;22.90;95.70;;;;;;5115669;28;20038;-72
2023/05/14 11:53:28;;;;;;;5.30;3.17;;;22.80;96.10;;;;;;5116355;28;20475;-71
2023/05/14 11:55:56;;;;;;;4.05;2.85;;;22.70;95.80;;;;;;5115583;28;20432;-71
2023/05/14 11:58:22;;;;;;;8.02;3.08;;;22.80;97.20;;;;;;5115537;28;20043;-73
2023/05/14 12:00:52;;;;;;;7.78;3.30;;;22.90;97.60;;;;;;5115594;28;20420;-72
2023/05/14 12:03:25;;;;;;;5.38;3.53;;;22.90;97.00;;;;;;5115620;28;20459;-72
2023/05/14 12:05:57;;;;;;;7.35;2.80;;;23.00;96.50;;;;;;5115486;28;20047;-73
2023/05/14 12:08:30;;;;;;;5.70;3.03;;;23.20;96.00;;;;;;5115426;28;20043;-72
2023/05/14 12:10:58;;;;;;;8.73;3.20;;;23.30;96.20;;;;;;5115186;28;20467;-72
2023/05/14 12:13:28;;;;;;;4.90;2.92;;;23.50;96.10;;;;;;5115044;28;20036;-71
2023/05/14 12:16:01;;;;;;;3.58;2.40;;;23.60;94.90;;;;;;5115216;28;20043;-71
2023/05/14 12:18:28;;;;;;;5.78;3.08;;;23.60;95.70;;;;;;5115216;28;20036;-72
2023/05/14 12:20:54;;;;;;;6.10;3.20;;;23.70;94.40;;;;;;5114767;28;20483;-72
2023/05/14 12:23:30;;;;;;;5.40;3.38;;;23.90;95.10;;;;;;5115291;28;20046;-72
2023/05/14 12:26:04;;;;;;;10.18;3.63;;;23.80;95.50;;;;;;5114954;28;20122;-72
2023/05/14 12:28:31;;;;;;;5.93;3.05;;;23.80;95.10;;;;;;5113822;28;20039;-72
2023/05/14 12:30:58;;;;;;;7.68;3.00;;;23.90;95.90;;;;;;5114967;28;20035;-71
2023/05/14 12:33:25;;;;;;;4.20;2.55;;;23.80;95.40;;;;;;5114845;28;20039;-71
2023/05/14 12:35:52;;;;;;;4.97;2.90;;;23.80;95.40;;;;;;5114867;28;20061;-72
2023/05/14 12:38:18;;;;;;;5.20;2.63;;;23.80;93.60;;;;;;5114792;28;20039;-71